Memramcook, Canada
Current Conditions -  °F | °C
As of 1:00 AM on Tuesday 21 Oct 2014 (Local Time) from CYQM Reporting Station
Few Clouds Few Clouds  
Wind Chill: 26°   Ceiling: Unl
Heat Index: 34°   Visibility: 15mi
Dew Point: 28°   Wind: 10mph
Humidity: 81%   Direction: 220°SW
Pressure: 29.95"   Gusts: NA
Location:  46.01°N, 64.54°W
Report Text: CYQM 210400Z 22009KT 15SM FEW220 01/M02 A2995 RMK CI2 SLP144
Loading
Personal Weather Stations






























Interactive Weather Map
Tropical Storm Tracking
New forecast layout! Learn more

10-Day Weather Forecast

Advertisements
Track Severe Weather on mobile